createdAt,value
2019-04-04T00:02:39.992Z,6.97
2019-04-04T00:05:09.294Z,5.53
2019-04-04T00:07:38.587Z,5.67
2019-04-04T00:10:08.490Z,7.78
2019-04-04T00:12:39.090Z,7.50
2019-04-04T00:15:08.821Z,5.03
2019-04-04T00:17:38.080Z,7.70
2019-04-04T00:20:07.922Z,7.78
2019-04-04T00:22:37.129Z,11.53
2019-04-04T00:25:09.727Z,8.20
2019-04-04T00:27:37.898Z,9.60
2019-04-04T00:30:07.152Z,7.67
2019-04-04T00:32:36.401Z,8.95
2019-04-04T00:35:05.842Z,9.88
2019-04-04T00:37:36.091Z,9.83
2019-04-04T00:42:35.757Z,15.85
2019-04-04T00:45:06.457Z,8.00
2019-04-04T00:47:35.622Z,7.62
2019-04-04T00:50:06.829Z,9.55
2019-04-04T00:52:36.059Z,9.95
2019-04-04T00:55:07.076Z,8.25
2019-04-04T00:57:36.298Z,7.30
2019-04-04T01:00:07.934Z,10.38
2019-04-04T01:02:37.162Z,9.38
2019-04-04T01:05:07.260Z,8.25
2019-04-04T01:07:36.506Z,10.05
2019-04-04T01:10:07.725Z,10.30
2019-04-04T01:12:36.939Z,10.28
2019-04-04T01:15:06.697Z,8.33
2019-04-04T01:17:35.994Z,8.43
2019-04-04T01:20:08.143Z,10.93
2019-04-04T01:22:37.417Z,8.40
2019-04-04T01:25:08.460Z,11.15
2019-04-04T01:27:37.737Z,11.18
2019-04-04T01:30:07.778Z,10.08
2019-04-04T01:32:37.028Z,12.95
2019-04-04T01:35:07.390Z,11.08
2019-04-04T01:37:36.601Z,12.37
2019-04-04T01:40:06.103Z,10.60
2019-04-04T01:42:37.867Z,8.23
2019-04-04T01:45:07.545Z,8.68
2019-04-04T01:47:36.825Z,8.73
2019-04-04T01:50:06.802Z,11.88
2019-04-04T01:52:35.999Z,11.73
2019-04-04T01:55:06.321Z,10.55
2019-04-04T01:57:38.578Z,10.30
2019-04-04T02:00:09.269Z,10.18
2019-04-04T02:02:38.514Z,9.63
2019-04-04T02:05:07.726Z,9.38
2019-04-04T02:07:37.014Z,14.53
2019-04-04T02:10:07.264Z,10.50
2019-04-04T02:12:38.383Z,8.20
2019-04-04T02:15:09.542Z,10.38
2019-04-04T02:17:38.721Z,9.05
2019-04-04T02:20:08.099Z,10.85
2019-04-04T02:22:37.298Z,13.08
2019-04-04T02:25:07.264Z,11.83
2019-04-04T02:27:37.895Z,11.95
2019-04-04T02:30:07.690Z,12.60
2019-04-04T02:32:37.046Z,10.82
2019-04-04T02:35:10.142Z,10.53
2019-04-04T02:37:38.326Z,10.82
2019-04-04T02:40:08.777Z,10.38
2019-04-04T02:42:39.105Z,10.90
2019-04-04T02:45:08.294Z,10.40
2019-04-04T02:47:37.524Z,10.65
2019-04-04T02:50:07.318Z,10.45
2019-04-04T02:52:36.647Z,11.28
2019-04-04T02:55:06.512Z,9.90
2019-04-04T02:57:35.701Z,11.33
2019-04-04T03:00:05.800Z,8.50
2019-04-04T03:02:36.963Z,12.80
2019-04-04T03:05:06.721Z,8.33
2019-04-04T03:07:35.915Z,9.95
2019-04-04T03:10:06.133Z,9.25
2019-04-04T03:12:35.403Z,10.00
2019-04-04T03:15:09.333Z,15.15
2019-04-04T03:17:39.358Z,9.65
2019-04-04T03:20:08.681Z,9.90
2019-04-04T03:22:37.842Z,8.53
2019-04-04T03:25:07.094Z,10.05
2019-04-04T03:27:36.356Z,10.40
2019-04-04T03:30:13.147Z,8.90
2019-04-04T03:32:38.521Z,8.98
2019-04-04T03:35:07.774Z,14.83
2019-04-04T03:37:40.359Z,9.75
2019-04-04T03:40:07.937Z,12.07
2019-04-04T03:42:37.146Z,10.38
2019-04-04T03:45:06.927Z,8.90
2019-04-04T03:47:36.534Z,10.85
2019-04-04T03:50:07.117Z,12.20
2019-04-04T03:55:07.000Z,12.82
2019-04-04T03:57:36.595Z,16.20
2019-04-04T04:00:07.630Z,10.15
2019-04-04T04:02:37.088Z,11.10
2019-04-04T04:05:14.615Z,12.07
2019-04-04T04:07:42.186Z,12.03
2019-04-04T04:10:11.412Z,10.72
2019-04-04T04:12:43.002Z,13.43
2019-04-04T04:15:11.570Z,11.50
2019-04-04T04:17:45.229Z,9.13
2019-04-04T04:20:11.662Z,8.55
2019-04-04T04:22:40.907Z,10.48
2019-04-04T04:25:10.130Z,10.03
2019-04-04T04:27:39.371Z,13.10
2019-04-04T04:30:08.654Z,15.58
2019-04-04T04:32:37.927Z,12.10
2019-04-04T04:35:08.602Z,9.65
2019-04-04T04:37:38.330Z,8.63
2019-04-04T04:40:07.555Z,10.35
2019-04-04T04:42:36.732Z,7.00
2019-04-04T04:45:12.160Z,15.05
2019-04-04T04:47:39.845Z,11.23
2019-04-04T04:50:10.013Z,10.30
2019-04-04T04:52:58.960Z,9.80
2019-04-04T04:55:39.515Z,11.45
2019-04-04T05:01:32.011Z,9.98
2019-04-04T05:04:02.633Z,11.40
2019-04-04T05:09:08.746Z,10.55
2019-04-04T05:14:37.519Z,10.08
2019-04-04T05:17:08.105Z,12.25
2019-04-04T05:19:37.788Z,10.18
2019-04-04T05:22:09.003Z,9.50
2019-04-04T05:27:56.567Z,12.23
2019-04-04T05:43:30.350Z,35.00
2019-04-04T06:00:42.517Z,10.23
2019-04-04T06:15:02.986Z,8.53
2019-04-04T06:17:32.280Z,10.38
2019-04-04T06:28:02.870Z,11.48
2019-04-04T06:30:43.035Z,12.98
2019-04-04T06:33:05.158Z,13.53
2019-04-04T06:41:04.415Z,11.95
2019-04-04T06:43:34.190Z,9.60
2019-04-04T06:46:03.558Z,10.90
2019-04-04T06:48:33.821Z,9.53
2019-04-04T06:51:03.334Z,11.88
2019-04-04T06:53:53.663Z,8.88
2019-04-04T06:58:52.116Z,8.48
2019-04-04T07:01:22.104Z,10.38
2019-04-04T07:03:52.815Z,9.38
2019-04-04T07:06:22.464Z,10.53
2019-04-04T07:08:51.811Z,12.33
2019-04-04T07:11:21.826Z,10.65
2019-04-04T07:13:51.065Z,9.45
2019-04-04T07:16:20.273Z,8.35
2019-04-04T07:18:49.577Z,13.88
2019-04-04T07:21:20.202Z,11.63
2019-04-04T07:23:50.369Z,10.53
2019-04-04T07:26:19.587Z,8.20
2019-04-04T07:28:51.999Z,9.85
2019-04-04T07:31:19.987Z,9.78
2019-04-04T07:33:49.487Z,13.75
2019-04-04T07:36:20.191Z,10.18
2019-04-04T07:38:50.201Z,10.05
2019-04-04T07:41:19.870Z,10.78
2019-04-04T07:43:51.601Z,9.20
2019-04-04T07:46:21.788Z,13.10
2019-04-04T07:51:21.694Z,13.15
2019-04-04T07:53:50.909Z,11.85
2019-04-04T07:56:20.167Z,11.70
2019-04-04T07:58:54.378Z,8.98
2019-04-04T08:01:33.445Z,10.00
2019-04-04T08:04:02.593Z,9.45
2019-04-04T08:06:31.794Z,9.23
2019-04-04T08:09:01.306Z,7.62
2019-04-04T08:11:30.537Z,9.88
2019-04-04T08:13:59.838Z,10.90
2019-04-04T08:16:30.938Z,9.40
2019-04-04T08:19:00.326Z,9.60
2019-04-04T08:21:29.521Z,8.73
2019-04-04T08:24:03.082Z,8.68
2019-04-04T08:26:32.444Z,8.50
2019-04-04T08:29:04.892Z,14.33
2019-04-04T08:31:34.223Z,8.70
2019-04-04T08:34:03.509Z,8.83
2019-04-04T08:36:35.663Z,7.20
2019-04-04T08:39:08.921Z,7.50
2019-04-04T08:41:38.248Z,8.30
2019-04-04T08:44:09.203Z,8.25
2019-04-04T08:46:40.187Z,8.10
2019-04-04T08:49:09.946Z,13.10
2019-04-04T08:51:39.200Z,8.75
2019-04-04T08:54:08.667Z,8.43
2019-04-04T08:56:38.162Z,15.43
2019-04-04T08:59:07.693Z,7.83
2019-04-04T09:20:34.670Z,6.97
2019-04-04T09:23:03.928Z,7.42
2019-04-04T09:25:33.105Z,9.93
2019-04-04T09:28:02.813Z,8.18
2019-04-04T09:30:48.974Z,8.43
2019-04-04T09:38:52.888Z,7.00
2019-04-04T09:44:02.086Z,6.00
2019-04-04T09:46:31.507Z,9.75
2019-04-04T09:49:00.996Z,9.10
2019-04-04T09:51:30.417Z,8.25
2019-04-04T09:54:00.084Z,6.62
2019-04-04T09:59:22.336Z,11.90
2019-04-04T10:02:07.599Z,7.30
2019-04-04T10:04:38.572Z,7.30
2019-04-04T10:07:07.796Z,6.10
2019-04-04T10:09:56.437Z,7.05
2019-04-04T10:12:29.493Z,6.03
2019-04-04T10:14:59.125Z,10.95
2019-04-04T10:20:11.952Z,5.25
2019-04-04T10:26:38.520Z,7.20
2019-04-04T10:32:43.656Z,8.73
2019-04-04T10:35:50.666Z,7.20
2019-04-04T10:38:19.867Z,6.22
2019-04-04T10:40:49.041Z,8.55
2019-04-04T10:43:18.440Z,6.83
2019-04-04T10:45:47.692Z,5.33
2019-04-04T10:48:16.877Z,8.68
2019-04-04T10:50:46.151Z,6.00
2019-04-04T10:53:15.343Z,5.87
2019-04-04T10:55:44.544Z,6.50
2019-04-04T10:58:13.741Z,6.58
2019-04-04T11:00:43.019Z,6.08
2019-04-04T11:03:12.244Z,5.83
2019-04-04T11:05:41.497Z,6.42
2019-04-04T11:14:29.731Z,6.75
2019-04-04T11:16:59.202Z,7.33
2019-04-04T11:19:48.264Z,7.60
2019-04-04T11:22:17.865Z,12.53
2019-04-04T11:24:52.183Z,10.20
2019-04-04T11:27:22.419Z,6.92
2019-04-04T11:29:51.982Z,8.08
2019-04-04T11:32:42.134Z,5.92
2019-04-04T11:38:10.031Z,7.40
2019-04-04T11:43:40.785Z,6.67
2019-04-04T11:47:17.630Z,9.63
2019-04-04T11:49:23.605Z,7.47
2019-04-04T11:51:59.529Z,9.30
2019-04-04T12:09:06.281Z,7.95
2019-04-04T12:47:47.702Z,7.53
2019-04-04T12:55:58.472Z,11.03
2019-04-04T12:58:27.696Z,8.88
2019-04-04T13:00:56.917Z,9.43
2019-04-04T13:03:26.167Z,9.10
2019-04-04T13:05:55.373Z,7.90
2019-04-04T13:08:24.725Z,5.95
2019-04-04T13:10:53.970Z,7.25
2019-04-04T13:13:23.313Z,6.70
2019-04-04T13:15:52.621Z,10.85
2019-04-04T13:18:21.867Z,7.65
2019-04-04T13:20:51.122Z,6.60
2019-04-04T13:23:20.344Z,7.20
2019-04-04T13:25:49.648Z,6.62
2019-04-04T13:28:18.912Z,9.73
2019-04-04T13:30:48.137Z,7.37
2019-04-04T13:33:17.354Z,8.05
2019-04-04T13:35:46.567Z,5.78
2019-04-04T13:38:15.824Z,9.08
2019-04-04T13:40:46.018Z,7.45
2019-04-04T13:43:15.386Z,8.88
2019-04-04T13:45:44.774Z,6.70
2019-04-04T13:48:14.015Z,5.80
2019-04-04T13:50:43.229Z,8.33
2019-04-04T13:53:12.412Z,5.37
2019-04-04T13:55:41.629Z,6.17
2019-04-04T13:58:10.815Z,12.70
2019-04-04T14:00:40.071Z,5.75
2019-04-04T14:03:09.437Z,4.58
2019-04-04T14:05:38.719Z,5.75
2019-04-04T14:08:07.873Z,7.87
2019-04-04T14:10:37.116Z,6.87
2019-04-04T14:13:06.335Z,6.17
2019-04-04T14:15:35.645Z,5.80
2019-04-04T14:18:08.370Z,4.08
2019-04-04T14:20:37.451Z,6.92
2019-04-04T14:23:06.698Z,6.58
2019-04-04T14:25:35.930Z,6.08
2019-04-04T14:28:05.330Z,5.03
2019-04-04T14:30:34.878Z,8.30
2019-04-04T14:33:04.384Z,5.92
2019-04-04T14:35:33.607Z,6.67
2019-04-04T14:38:02.894Z,5.67
2019-04-04T14:40:32.123Z,5.08
2019-04-04T14:43:01.658Z,6.17
2019-04-04T14:45:31.855Z,6.10
2019-04-04T14:48:01.020Z,8.03
2019-04-04T14:50:30.401Z,6.58
2019-04-04T14:52:59.642Z,6.00
2019-04-04T14:55:29.510Z,8.10
2019-04-04T14:57:58.731Z,7.08
2019-04-04T15:00:27.903Z,7.28
2019-04-04T15:02:57.153Z,9.50
2019-04-04T15:05:26.383Z,5.47
2019-04-04T15:07:55.676Z,5.47
2019-04-04T15:10:24.925Z,6.80
2019-04-04T15:12:54.166Z,4.75
2019-04-04T15:15:26.171Z,4.83
2019-04-04T15:17:54.297Z,7.95
2019-04-04T15:20:23.674Z,8.63
2019-04-04T15:22:52.908Z,6.33
2019-04-04T15:25:22.132Z,8.33
2019-04-04T15:27:51.296Z,5.25
2019-04-04T15:30:20.973Z,5.80
2019-04-04T15:32:50.212Z,11.00
2019-04-04T15:35:19.703Z,8.73
2019-04-04T15:37:49.136Z,9.63
2019-04-04T15:40:18.309Z,8.43
2019-04-04T15:42:47.523Z,9.05
2019-04-04T15:45:16.948Z,8.73
2019-04-04T15:47:46.290Z,9.35
2019-04-04T15:50:15.559Z,8.55
2019-04-04T15:52:44.752Z,12.05
2019-04-04T15:55:13.906Z,10.08
2019-04-04T15:57:43.091Z,7.20
2019-04-04T16:00:12.440Z,9.60
2019-04-04T16:02:41.773Z,8.93
2019-04-04T16:05:11.127Z,9.73
2019-04-04T16:07:40.508Z,19.00
2019-04-04T16:10:09.965Z,10.78
2019-04-04T16:12:39.249Z,9.35
2019-04-04T16:15:08.490Z,9.95
2019-04-04T16:17:37.818Z,11.20
2019-04-04T16:20:08.658Z,9.90
2019-04-04T16:22:38.130Z,13.88
2019-04-04T16:25:07.625Z,14.53
2019-04-04T16:27:37.039Z,14.40
2019-04-04T16:30:10.212Z,17.92
2019-04-04T16:32:39.777Z,11.83
2019-04-04T16:35:08.963Z,15.85
2019-04-04T16:37:38.420Z,15.05
2019-04-04T16:40:09.560Z,14.30
2019-04-04T16:42:38.993Z,15.43
2019-04-04T16:45:08.512Z,15.20
2019-04-04T16:47:37.798Z,17.82
2019-04-04T16:50:07.423Z,17.05
2019-04-04T16:52:36.753Z,15.87
2019-04-04T16:55:07.480Z,15.43
2019-04-04T16:57:36.654Z,16.45
2019-04-04T17:00:10.753Z,19.55
2019-04-04T17:02:40.089Z,22.30
2019-04-04T17:05:10.891Z,17.15
2019-04-04T17:07:40.753Z,17.05
2019-04-04T17:10:10.152Z,18.05
2019-04-04T17:12:39.340Z,21.50
2019-04-04T17:15:08.648Z,16.65
2019-04-04T17:17:38.044Z,18.77
2019-04-04T17:20:07.853Z,17.73
2019-04-04T17:22:37.095Z,18.62
2019-04-04T17:25:07.729Z,24.72
2019-04-04T17:27:37.524Z,21.73
2019-04-04T17:30:09.334Z,22.65
2019-04-04T17:32:38.889Z,23.73
2019-04-04T17:35:08.727Z,22.77
2019-04-04T17:37:37.995Z,23.52
2019-04-04T17:40:08.426Z,26.77
2019-04-04T17:42:37.669Z,33.18
2019-04-04T17:45:08.099Z,26.33
2019-04-04T17:47:37.574Z,26.70
2019-04-04T17:50:09.036Z,31.12
2019-04-04T17:52:38.268Z,30.68
2019-04-04T17:55:10.685Z,32.48
2019-04-04T17:57:40.252Z,35.45
2019-04-04T18:00:10.462Z,37.95
2019-04-04T18:02:39.731Z,35.98
2019-04-04T18:05:10.632Z,35.52
2019-04-04T18:07:39.860Z,36.80
2019-04-04T18:10:09.028Z,36.95
2019-04-04T18:12:40.638Z,35.15
2019-04-04T18:15:10.364Z,38.33
2019-04-04T18:17:39.757Z,38.10
2019-04-04T18:20:10.213Z,40.90
2019-04-04T18:22:40.135Z,41.83
2019-04-04T18:25:09.860Z,43.52
2019-04-04T18:27:39.260Z,45.05
2019-04-04T18:30:11.075Z,41.55
2019-04-04T18:32:40.888Z,42.78
2019-04-04T18:35:10.679Z,55.40
2019-04-04T18:37:40.311Z,46.58
2019-04-04T18:40:10.503Z,43.57
2019-04-04T18:42:52.127Z,43.68
2019-04-04T18:45:10.740Z,44.55
2019-04-04T18:47:40.866Z,43.92
2019-04-04T18:50:10.124Z,44.58
2019-04-04T18:52:39.501Z,46.95
2019-04-04T18:55:19.071Z,47.48
2019-04-04T18:57:40.333Z,38.70
2019-04-04T19:02:39.909Z,42.35
2019-04-04T19:05:09.615Z,44.60
2019-04-04T19:07:39.928Z,45.43
2019-04-04T19:10:09.275Z,43.60
2019-04-04T19:12:38.946Z,43.65
2019-04-04T19:15:08.263Z,47.83
2019-04-04T19:17:38.160Z,47.38
2019-04-04T19:20:10.566Z,41.50
2019-04-04T19:22:39.764Z,46.55
2019-04-04T19:25:10.211Z,48.77
2019-04-04T19:27:39.576Z,54.05
2019-04-04T19:30:09.503Z,43.60
2019-04-04T19:32:38.947Z,49.95
2019-04-04T19:35:08.580Z,42.80
2019-04-04T19:37:37.802Z,47.57
2019-04-04T19:40:07.866Z,45.70
2019-04-04T19:42:37.240Z,48.42
2019-04-04T19:45:08.331Z,45.90
2019-04-04T19:47:37.940Z,46.02
2019-04-04T19:50:10.884Z,44.33
2019-04-04T19:52:40.509Z,41.80
2019-04-04T19:55:09.738Z,41.70
2019-04-04T19:57:39.160Z,51.18
2019-04-04T20:00:09.924Z,38.38
2019-04-04T20:02:39.242Z,35.15
2019-04-04T20:05:09.106Z,40.15
2019-04-04T20:07:38.909Z,37.45
2019-04-04T20:10:08.648Z,35.35
2019-04-04T20:12:38.072Z,34.13
2019-04-04T20:15:08.609Z,34.13
2019-04-04T20:20:09.830Z,36.77
2019-04-04T20:22:39.094Z,36.28
2019-04-04T20:25:08.644Z,35.92
2019-04-04T20:27:38.044Z,35.83
2019-04-04T20:30:14.127Z,34.58
2019-04-04T20:32:42.687Z,39.18
2019-04-04T20:35:11.929Z,34.03
2019-04-04T20:37:41.167Z,31.07
2019-04-04T20:40:10.402Z,36.88
2019-04-04T20:42:39.730Z,37.40
2019-04-04T20:47:39.126Z,36.75
2019-04-04T20:50:08.783Z,36.05
2019-04-04T20:52:38.232Z,35.73
2019-04-04T20:55:07.775Z,33.60
2019-04-04T20:57:36.999Z,33.98
2019-04-04T21:00:07.610Z,35.98
2019-04-04T21:05:09.873Z,38.65
2019-04-04T21:07:39.103Z,37.55
2019-04-04T21:10:08.977Z,38.17
2019-04-04T21:12:38.191Z,34.80
2019-04-04T21:17:37.398Z,34.63
2019-04-04T21:20:08.140Z,36.03
2019-04-04T21:22:37.660Z,34.25
2019-04-04T21:25:06.828Z,39.05
2019-04-04T21:27:36.487Z,38.33
2019-04-04T21:30:07.065Z,40.43
2019-04-04T21:35:07.497Z,40.48
2019-04-04T21:37:36.939Z,37.50
2019-04-04T21:40:06.448Z,38.00
2019-04-04T21:42:36.360Z,36.98
2019-04-04T21:47:56.045Z,35.00
2019-04-04T21:50:25.338Z,39.50
2019-04-04T21:52:54.540Z,35.75
2019-04-04T21:55:23.763Z,37.20
2019-04-04T21:57:53.176Z,40.17
2019-04-04T22:00:23.927Z,35.30
2019-04-04T22:02:53.429Z,37.73
2019-04-04T22:05:22.640Z,34.58
2019-04-04T22:07:51.862Z,41.63
2019-04-04T22:10:21.661Z,39.55
2019-04-04T22:12:51.033Z,35.38
2019-04-04T22:15:20.534Z,36.50
2019-04-04T22:17:49.817Z,40.03
2019-04-04T22:20:18.991Z,37.20
2019-04-04T22:22:48.263Z,40.35
2019-04-04T22:25:17.491Z,40.67
2019-04-04T22:27:46.693Z,40.40
2019-04-04T22:30:15.907Z,40.63
2019-04-04T22:32:45.727Z,44.50
2019-04-04T22:35:14.931Z,42.20
2019-04-04T22:37:44.205Z,45.63
2019-04-04T22:40:13.408Z,40.55
2019-04-04T22:42:42.631Z,41.60
2019-04-04T22:45:12.050Z,42.58
2019-04-04T22:47:41.536Z,41.40
2019-04-04T22:50:10.839Z,44.08
2019-04-04T22:52:40.251Z,39.48
2019-04-04T22:55:09.500Z,38.48
2019-04-04T22:57:38.730Z,45.80
2019-04-04T23:00:08.482Z,43.95
2019-04-04T23:02:37.786Z,47.45
2019-04-04T23:05:07.261Z,44.40
2019-04-04T23:07:36.469Z,42.73
2019-04-04T23:10:08.067Z,47.30
2019-04-04T23:12:37.232Z,46.13
2019-04-04T23:15:09.220Z,52.10
2019-04-04T23:17:38.685Z,55.05
2019-04-04T23:20:09.899Z,46.60
2019-04-04T23:22:47.014Z,50.10
2019-04-04T23:27:44.674Z,50.70
2019-04-04T23:30:14.005Z,49.50
2019-04-04T23:32:43.175Z,48.97
2019-04-04T23:35:12.420Z,47.45
2019-04-04T23:37:41.791Z,48.63
2019-04-04T23:40:11.226Z,48.68
2019-04-04T23:42:40.472Z,49.70
2019-04-04T23:45:09.699Z,46.23
2019-04-04T23:47:43.146Z,49.18
2019-04-04T23:50:10.426Z,51.05
2019-04-04T23:55:10.357Z,49.80
2019-04-04T23:57:40.730Z,55.73
